createdAt,value
2019-04-30T00:00:55.378Z,38.63
2019-04-30T00:03:25.056Z,38.70
2019-04-30T00:05:53.808Z,39.90
2019-04-30T00:08:19.422Z,40.90
2019-04-30T00:10:45.467Z,35.97
2019-04-30T00:13:17.814Z,37.07
2019-04-30T00:15:39.685Z,40.77
2019-04-30T00:18:05.779Z,52.50
2019-04-30T00:20:37.219Z,45.07
2019-04-30T00:22:59.871Z,36.43
2019-04-30T00:25:28.500Z,33.10
2019-04-30T00:27:55.826Z,46.17
2019-04-30T00:30:21.943Z,40.57
2019-04-30T00:32:48.008Z,41.33
2019-04-30T00:35:16.211Z,44.70
2019-04-30T00:37:42.023Z,39.23
2019-04-30T00:40:08.531Z,38.40
2019-04-30T00:42:35.751Z,39.93
2019-04-30T00:45:09.603Z,40.57
2019-04-30T00:47:35.066Z,43.03
2019-04-30T00:50:01.333Z,35.83
2019-04-30T00:52:29.458Z,42.53
2019-04-30T00:54:55.423Z,35.53
2019-04-30T00:57:21.596Z,35.83
2019-04-30T00:59:48.067Z,37.13
2019-04-30T01:02:30.844Z,39.90
2019-04-30T01:04:51.802Z,41.33
2019-04-30T01:07:18.155Z,41.83
2019-04-30T01:09:49.412Z,40.37
2019-04-30T01:12:12.276Z,39.03
2019-04-30T01:14:38.736Z,49.20
2019-04-30T01:17:08.772Z,45.27
2019-04-30T01:19:33.183Z,36.97
2019-04-30T01:21:59.492Z,35.10
2019-04-30T01:24:31.403Z,35.40
2019-04-30T01:27:00.720Z,38.10
2019-04-30T01:29:24.615Z,36.50
2019-04-30T01:31:50.675Z,39.87
2019-04-30T01:34:16.744Z,47.20
2019-04-30T01:36:43.539Z,42.40
2019-04-30T01:39:10.764Z,40.27
2019-04-30T01:41:38.666Z,41.60
2019-04-30T01:44:08.634Z,35.53
2019-04-30T01:46:32.984Z,44.27
2019-04-30T01:48:59.072Z,40.13
2019-04-30T01:51:25.120Z,35.50
2019-04-30T01:53:51.169Z,44.23
2019-04-30T01:56:22.089Z,34.03
2019-04-30T01:58:50.059Z,36.17
2019-04-30T02:01:19.029Z,36.57
2019-04-30T02:03:45.259Z,52.00
2019-04-30T02:06:11.581Z,40.13
2019-04-30T02:08:39.255Z,40.80
2019-04-30T02:11:05.451Z,36.77
2019-04-30T02:13:34.461Z,46.10
2019-04-30T02:15:59.451Z,46.83
2019-04-30T02:18:25.513Z,45.90
2019-04-30T02:20:51.559Z,39.47
2019-04-30T02:23:19.438Z,39.17
2019-04-30T02:25:45.571Z,33.70
2019-04-30T02:28:11.627Z,37.20
2019-04-30T02:30:40.364Z,37.13
2019-04-30T02:33:05.711Z,38.03
2019-04-30T02:35:50.465Z,43.40
2019-04-30T02:38:21.377Z,43.87
2019-04-30T02:40:49.888Z,38.00
2019-04-30T02:43:17.296Z,41.80
2019-04-30T02:45:45.455Z,46.27
2019-04-30T02:48:14.045Z,40.37
2019-04-30T02:50:42.010Z,42.43
2019-04-30T02:53:47.136Z,39.73
2019-04-30T02:56:13.186Z,37.80
2019-04-30T02:58:40.994Z,37.43
2019-04-30T03:01:07.228Z,38.17
2019-04-30T03:03:33.347Z,46.13
2019-04-30T03:05:59.719Z,40.80
2019-04-30T03:08:25.869Z,41.50
2019-04-30T03:10:52.883Z,41.93
2019-04-30T03:13:20.157Z,41.03
2019-04-30T03:15:46.384Z,43.10
2019-04-30T03:18:30.765Z,46.10
2019-04-30T03:21:09.763Z,44.67
2019-04-30T03:23:35.703Z,49.83
2019-04-30T03:26:01.760Z,40.03
2019-04-30T03:28:30.102Z,37.33
2019-04-30T03:30:57.877Z,40.23
2019-04-30T03:33:23.751Z,35.27
2019-04-30T03:35:54.391Z,44.83
2019-04-30T03:38:20.295Z,46.40
2019-04-30T03:40:45.820Z,41.43
2019-04-30T03:43:12.068Z,40.40
2019-04-30T03:45:40.171Z,39.10
2019-04-30T03:48:06.110Z,43.10
2019-04-30T03:50:48.737Z,57.53
2019-04-30T03:53:00.526Z,63.13
2019-04-30T03:55:26.887Z,63.83
2019-04-30T03:57:52.960Z,41.40
2019-04-30T04:00:23.446Z,38.33
2019-04-30T04:02:50.194Z,35.80
2019-04-30T04:05:20.212Z,42.33
2019-04-30T04:07:53.027Z,42.13
2019-04-30T04:10:20.749Z,39.57
2019-04-30T04:12:49.609Z,44.60
2019-04-30T04:15:14.765Z,45.93
2019-04-30T04:17:40.915Z,43.77
2019-04-30T04:20:10.277Z,42.37
2019-04-30T04:22:35.443Z,36.60
2019-04-30T04:25:01.500Z,37.60
2019-04-30T04:27:30.097Z,37.50
2019-04-30T04:29:55.571Z,39.27
2019-04-30T04:32:24.299Z,42.63
2019-04-30T04:34:50.365Z,45.50
2019-04-30T04:37:19.167Z,43.07
2019-04-30T04:39:44.968Z,42.93
2019-04-30T04:42:11.079Z,41.43
2019-04-30T04:44:39.332Z,42.90
2019-04-30T04:47:05.120Z,41.73
2019-04-30T04:49:31.258Z,38.67
2019-04-30T04:51:59.238Z,40.47
2019-04-30T04:54:25.272Z,60.37
2019-04-30T04:56:54.889Z,37.00
2019-04-30T04:59:20.151Z,39.27
2019-04-30T05:01:48.812Z,38.97
2019-04-30T05:04:14.339Z,48.27
2019-04-30T05:06:40.396Z,43.57
2019-04-30T05:09:06.845Z,48.00
2019-04-30T05:11:32.999Z,45.03
2019-04-30T05:13:59.051Z,42.90
2019-04-30T05:16:25.106Z,45.03
2019-04-30T05:18:51.161Z,41.90
2019-04-30T05:21:18.835Z,42.87
2019-04-30T05:23:45.067Z,55.93
2019-04-30T05:26:11.282Z,42.53
2019-04-30T05:28:39.311Z,42.57
2019-04-30T05:31:05.427Z,44.53
2019-04-30T05:33:31.471Z,50.30
2019-04-30T05:35:59.249Z,45.67
2019-04-30T05:38:25.538Z,45.83
2019-04-30T05:40:51.596Z,42.97
2019-04-30T05:43:19.215Z,46.70
2019-04-30T05:45:45.524Z,43.47
2019-04-30T05:48:11.679Z,44.07
2019-04-30T05:50:39.136Z,38.13
2019-04-30T05:53:05.401Z,38.57
2019-04-30T05:55:31.516Z,35.97
2019-04-30T05:57:59.107Z,44.90
2019-04-30T06:00:25.529Z,36.47
2019-04-30T06:02:51.586Z,39.47
2019-04-30T06:05:18.755Z,45.33
2019-04-30T06:07:45.108Z,46.47
2019-04-30T06:10:19.743Z,43.17
2019-04-30T06:12:49.338Z,46.00
2019-04-30T06:15:20.012Z,42.37
2019-04-30T06:17:59.708Z,41.37
2019-04-30T06:20:21.074Z,38.23
2019-04-30T06:22:49.716Z,39.93
2019-04-30T06:25:27.187Z,36.93
2019-04-30T06:27:44.861Z,36.50
2019-04-30T06:30:12.096Z,36.77
2019-04-30T06:32:39.528Z,34.67
2019-04-30T06:35:06.135Z,37.97
2019-04-30T06:37:32.248Z,37.13
2019-04-30T06:39:59.162Z,39.93
2019-04-30T06:42:25.467Z,41.73
2019-04-30T06:44:51.543Z,39.87
2019-04-30T06:47:20.028Z,39.27
2019-04-30T06:49:45.872Z,31.43
2019-04-30T06:52:20.303Z,38.07
2019-04-30T06:54:39.919Z,34.10
2019-04-30T06:57:05.982Z,36.13
2019-04-30T06:59:32.027Z,36.30
2019-04-30T07:01:59.000Z,37.67
2019-04-30T07:04:25.166Z,41.23
2019-04-30T07:06:51.215Z,39.77
2019-04-30T07:09:49.538Z,38.57
2019-04-30T07:12:25.534Z,60.27
2019-04-30T07:14:42.597Z,43.40
2019-04-30T07:17:09.550Z,40.37
2019-04-30T07:19:52.522Z,32.57
2019-04-30T07:22:04.106Z,37.10
2019-04-30T07:24:30.167Z,43.57
2019-04-30T07:27:01.021Z,35.97
2019-04-30T07:29:24.208Z,34.60
2019-04-30T07:31:51.680Z,41.37
2019-04-30T07:34:19.625Z,42.10
2019-04-30T07:39:13.862Z,40.23
2019-04-30T07:41:40.350Z,41.80
2019-04-30T07:44:06.688Z,39.93
2019-04-30T07:46:35.094Z,38.93
2019-04-30T07:49:00.692Z,35.33
2019-04-30T07:51:30.427Z,35.80
2019-04-30T07:53:54.941Z,46.70
2019-04-30T07:56:28.054Z,39.93
2019-04-30T07:58:50.453Z,35.53
2019-04-30T08:01:19.371Z,35.73
2019-04-30T08:03:47.365Z,42.93
2019-04-30T08:06:15.375Z,43.03
2019-04-30T08:08:41.628Z,41.77
2019-04-30T08:09:36.917Z,41.60
2019-04-30T08:11:09.281Z,56.07
2019-04-30T08:13:36.195Z,41.33
2019-04-30T08:16:02.723Z,38.80
2019-04-30T08:18:29.497Z,37.67
2019-04-30T08:20:55.651Z,31.47
2019-04-30T08:23:34.042Z,34.40
2019-04-30T08:25:49.688Z,32.97
2019-04-30T08:28:15.747Z,32.57
2019-04-30T08:30:41.812Z,37.80
2019-04-30T08:33:09.454Z,36.30
2019-04-30T08:35:35.679Z,40.47
2019-04-30T08:38:01.740Z,65.87
2019-04-30T08:40:29.634Z,42.07
2019-04-30T08:42:55.772Z,39.97
2019-04-30T08:45:21.831Z,34.87
2019-04-30T08:47:49.350Z,40.97
2019-04-30T08:50:16.463Z,36.03
2019-04-30T08:52:42.735Z,37.13
2019-04-30T08:55:16.277Z,36.50
2019-04-30T08:57:36.889Z,44.07
2019-04-30T09:00:06.351Z,34.10
2019-04-30T09:02:32.413Z,36.17
2019-04-30T09:05:00.573Z,42.93
2019-04-30T09:07:26.791Z,34.80
2019-04-30T09:09:52.844Z,36.07
2019-04-30T09:12:19.588Z,43.10
2019-04-30T09:14:45.935Z,37.20
2019-04-30T09:17:11.993Z,38.77
2019-04-30T09:19:38.668Z,44.63
2019-04-30T09:22:14.417Z,38.80
2019-04-30T09:24:32.811Z,39.77
2019-04-30T09:26:59.131Z,32.00
2019-04-30T09:29:25.424Z,33.77
2019-04-30T09:31:51.552Z,37.87
2019-04-30T09:34:20.650Z,43.07
2019-04-30T09:36:45.567Z,38.43
2019-04-30T09:39:11.832Z,38.70
2019-04-30T09:41:41.011Z,43.07
2019-04-30T09:44:06.021Z,39.33
2019-04-30T09:46:32.385Z,51.60
2019-04-30T09:48:59.790Z,39.20
2019-04-30T09:51:26.350Z,39.90
2019-04-30T09:53:59.152Z,34.77
2019-04-30T09:56:20.683Z,32.50
2019-04-30T09:58:46.745Z,35.27
2019-04-30T10:01:12.795Z,34.43
2019-04-30T10:03:39.652Z,47.47
2019-04-30T10:06:06.411Z,33.40
2019-04-30T10:08:32.467Z,39.33
2019-04-30T10:11:00.423Z,35.73
2019-04-30T10:13:26.487Z,41.83
2019-04-30T10:16:03.240Z,40.33
2019-04-30T10:18:29.392Z,36.90
2019-04-30T10:20:55.599Z,35.87
2019-04-30T10:23:21.647Z,36.90
2019-04-30T10:25:48.319Z,35.63
2019-04-30T10:28:14.371Z,33.17
2019-04-30T10:30:40.426Z,35.70
2019-04-30T10:33:06.795Z,34.03
2019-04-30T10:35:33.383Z,41.03
2019-04-30T10:37:59.676Z,51.47
2019-04-30T10:40:25.813Z,45.23
2019-04-30T10:42:51.859Z,35.23
2019-04-30T10:45:18.616Z,42.60
2019-04-30T10:47:44.877Z,37.20
2019-04-30T10:50:11.227Z,38.53
2019-04-30T10:52:39.224Z,37.00
2019-04-30T10:55:05.751Z,37.50
2019-04-30T10:57:31.820Z,34.63
2019-04-30T10:59:58.674Z,33.50
2019-04-30T11:02:24.868Z,36.83
2019-04-30T11:04:50.916Z,38.07
2019-04-30T11:07:18.552Z,42.80
2019-04-30T11:09:44.823Z,37.03
2019-04-30T11:12:10.879Z,39.87
2019-04-30T11:14:36.949Z,36.87
2019-04-30T11:17:03.271Z,36.40
2019-04-30T11:19:29.748Z,32.63
2019-04-30T11:21:56.049Z,31.50
2019-04-30T11:24:22.484Z,33.10
2019-04-30T11:26:50.022Z,33.30
2019-04-30T11:29:16.896Z,33.20
2019-04-30T11:31:50.969Z,32.53
2019-04-30T11:34:17.240Z,39.07
2019-04-30T11:36:43.287Z,36.07
2019-04-30T11:39:11.451Z,48.00
2019-04-30T11:41:39.144Z,43.40
2019-04-30T11:44:05.492Z,39.83
2019-04-30T11:46:35.361Z,45.20
2019-04-30T11:49:01.632Z,38.83
2019-04-30T11:51:29.506Z,36.93
2019-04-30T11:53:55.776Z,44.17
2019-04-30T11:56:21.827Z,39.47
2019-04-30T11:58:48.890Z,36.23
2019-04-30T12:01:19.918Z,37.53
2019-04-30T12:03:46.020Z,52.37
2019-04-30T12:06:12.087Z,40.93
2019-04-30T12:08:40.044Z,36.07
2019-04-30T12:11:08.008Z,49.57
2019-04-30T12:13:34.069Z,48.30
2019-04-30T12:16:00.253Z,38.53
2019-04-30T12:18:26.303Z,43.43
2019-04-30T12:20:52.366Z,37.33
2019-04-30T12:23:19.008Z,33.03
2019-04-30T12:25:45.384Z,32.87
2019-04-30T12:28:11.439Z,38.03
2019-04-30T12:30:39.129Z,33.57
2019-04-30T12:33:05.395Z,36.77
2019-04-30T12:35:31.559Z,39.60
2019-04-30T12:37:58.847Z,47.17
2019-04-30T12:40:29.507Z,41.00
2019-04-30T12:42:53.075Z,45.20
2019-04-30T12:45:19.544Z,41.83
2019-04-30T12:47:47.634Z,44.00
2019-04-30T12:50:15.693Z,33.70
2019-04-30T12:52:43.763Z,40.70
2019-04-30T12:55:15.810Z,35.67
2019-04-30T12:57:55.543Z,38.50
2019-04-30T13:00:12.925Z,37.70
2019-04-30T13:02:39.876Z,35.17
2019-04-30T13:05:08.664Z,38.50
2019-04-30T13:07:34.815Z,37.67
2019-04-30T13:10:02.724Z,44.57
2019-04-30T13:12:29.624Z,41.13
2019-04-30T13:14:56.123Z,41.60
2019-04-30T13:17:22.187Z,43.93
2019-04-30T13:19:48.348Z,34.97
2019-04-30T13:22:14.400Z,37.30
2019-04-30T13:24:40.540Z,38.63
2019-04-30T13:27:06.751Z,36.20
2019-04-30T13:29:37.236Z,38.07
2019-04-30T13:32:03.332Z,32.13
2019-04-30T13:34:31.324Z,35.20
2019-04-30T13:36:59.304Z,35.00
2019-04-30T13:39:29.193Z,37.67
2019-04-30T13:42:17.324Z,39.83
2019-04-30T13:44:39.358Z,39.00
2019-04-30T13:47:05.687Z,37.53
2019-04-30T13:49:31.743Z,35.47
2019-04-30T13:51:57.791Z,34.97
2019-04-30T13:54:23.855Z,37.57
2019-04-30T13:56:49.918Z,35.70
2019-04-30T13:59:15.964Z,36.03
2019-04-30T14:01:42.059Z,34.77
2019-04-30T14:04:26.725Z,37.13
2019-04-30T14:06:54.683Z,41.10
2019-04-30T14:09:25.631Z,44.07
2019-04-30T14:11:51.702Z,41.13
2019-04-30T14:14:18.398Z,40.63
2019-04-30T14:16:45.853Z,39.93
2019-04-30T14:19:11.912Z,32.30
2019-04-30T14:21:39.194Z,37.67
2019-04-30T14:24:05.632Z,42.50
2019-04-30T14:26:31.807Z,41.00
2019-04-30T14:28:58.882Z,38.23
2019-04-30T14:31:26.454Z,39.67
2019-04-30T14:33:53.600Z,39.47
2019-04-30T14:36:19.780Z,38.97
2019-04-30T14:38:45.947Z,41.23
2019-04-30T14:41:12.935Z,39.00
2019-04-30T14:43:44.403Z,50.93
2019-04-30T14:46:12.934Z,46.47
2019-04-30T14:48:45.041Z,35.40
2019-04-30T14:51:11.795Z,39.50
2019-04-30T14:53:40.130Z,52.13
2019-04-30T14:56:09.543Z,37.20
2019-04-30T14:58:43.764Z,37.60
2019-04-30T15:01:19.384Z,39.70
2019-04-30T15:03:45.727Z,60.07
2019-04-30T15:06:11.880Z,38.23
2019-04-30T15:08:39.411Z,38.23
2019-04-30T15:11:05.792Z,37.33
2019-04-30T15:13:31.861Z,43.50
2019-04-30T15:15:57.907Z,36.33
2019-04-30T15:18:23.980Z,37.43
2019-04-30T15:20:50.046Z,35.20
2019-04-30T15:23:34.800Z,36.60
2019-04-30T15:26:00.856Z,35.93
2019-04-30T15:28:32.458Z,34.07
2019-04-30T15:30:54.997Z,35.67
2019-04-30T15:33:25.832Z,34.50
2019-04-30T15:35:51.884Z,40.33
2019-04-30T15:38:19.345Z,43.57
2019-04-30T15:40:45.499Z,40.70
2019-04-30T15:43:11.562Z,35.10
2019-04-30T15:45:39.166Z,39.73
2019-04-30T15:48:05.303Z,48.30
2019-04-30T15:50:31.363Z,37.17
2019-04-30T15:52:58.528Z,42.67
2019-04-30T15:55:24.803Z,39.90
2019-04-30T15:57:55.432Z,39.47
2019-04-30T16:00:21.491Z,38.77
2019-04-30T16:02:57.078Z,39.77
2019-04-30T16:05:21.855Z,45.80
2019-04-30T16:07:49.932Z,45.00
2019-04-30T16:10:24.248Z,41.77
2019-04-30T16:12:52.231Z,42.57
2019-04-30T16:15:18.895Z,44.57
2019-04-30T16:17:48.899Z,47.47
2019-04-30T16:20:14.943Z,39.63
2019-04-30T16:22:41.020Z,38.97
2019-04-30T16:25:08.648Z,36.83
2019-04-30T16:27:34.851Z,33.20
2019-04-30T16:30:00.955Z,43.47
2019-04-30T16:32:27.023Z,40.43
2019-04-30T16:34:53.071Z,43.97
2019-04-30T16:37:20.186Z,42.17
2019-04-30T16:39:46.500Z,45.57
2019-04-30T16:42:12.590Z,41.67
2019-04-30T16:44:38.652Z,43.80
2019-04-30T16:47:13.406Z,40.40
2019-04-30T16:49:32.667Z,36.97
2019-04-30T16:58:52.944Z,34.23
2019-04-30T17:01:19.219Z,38.07
2019-04-30T17:03:47.430Z,52.43
2019-04-30T17:06:15.688Z,42.57
2019-04-30T17:08:43.780Z,39.37
2019-04-30T17:11:20.439Z,41.17
2019-04-30T17:13:48.427Z,51.43
2019-04-30T17:16:19.663Z,39.23
2019-04-30T17:18:45.895Z,36.63
2019-04-30T17:21:11.960Z,37.03
2019-04-30T17:23:38.036Z,46.77
2019-04-30T17:26:04.116Z,35.23
2019-04-30T17:28:30.180Z,38.53
2019-04-30T17:30:56.252Z,33.93
2019-04-30T17:33:22.314Z,35.23
2019-04-30T17:35:49.866Z,36.97
2019-04-30T17:38:16.135Z,39.83
2019-04-30T17:40:42.192Z,37.50
2019-04-30T17:43:08.252Z,40.07
2019-04-30T17:45:34.319Z,37.20
2019-04-30T17:48:00.380Z,49.77
2019-04-30T17:50:26.430Z,38.10
2019-04-30T17:52:52.500Z,40.30
2019-04-30T17:55:19.505Z,39.90
2019-04-30T17:57:45.779Z,35.27
2019-04-30T18:00:18.795Z,36.80
2019-04-30T18:02:41.643Z,34.60
2019-04-30T18:05:09.119Z,44.60
2019-04-30T18:07:35.990Z,39.27
2019-04-30T18:10:05.955Z,42.20
2019-04-30T18:12:32.007Z,40.20
2019-04-30T18:14:59.962Z,44.70
2019-04-30T18:17:26.439Z,38.23
2019-04-30T18:20:03.071Z,39.93
2019-04-30T18:22:45.922Z,39.50
2019-04-30T18:25:30.951Z,33.60
2019-04-30T18:27:59.530Z,42.03
2019-04-30T18:30:39.295Z,37.13
2019-04-30T18:33:05.843Z,34.37
2019-04-30T18:35:32.504Z,40.47
2019-04-30T18:37:58.682Z,46.93
2019-04-30T18:40:24.827Z,36.17
2019-04-30T18:42:51.031Z,35.03
2019-04-30T18:45:19.306Z,38.57
2019-04-30T18:47:45.140Z,38.73
2019-04-30T18:50:11.199Z,38.03
2019-04-30T18:52:37.752Z,37.97
2019-04-30T18:55:05.111Z,35.33
2019-04-30T18:57:31.164Z,32.70
2019-04-30T18:59:59.155Z,32.77
2019-04-30T19:02:25.180Z,36.30
2019-04-30T19:04:51.234Z,35.67
2019-04-30T19:07:22.036Z,38.00
2019-04-30T19:09:59.144Z,39.97
2019-04-30T19:12:29.080Z,40.10
2019-04-30T19:14:59.041Z,50.50
2019-04-30T19:17:45.240Z,56.97
2019-04-30T19:20:18.967Z,33.83
2019-04-30T19:22:45.119Z,37.00
2019-04-30T19:25:11.183Z,37.67
2019-04-30T19:27:37.320Z,44.57
2019-04-30T19:30:06.657Z,41.07
2019-04-30T19:32:32.795Z,37.33
2019-04-30T19:34:59.122Z,41.13
2019-04-30T19:37:25.251Z,38.67
2019-04-30T19:39:51.335Z,52.60
2019-04-30T19:42:18.755Z,42.13
2019-04-30T19:44:56.155Z,40.13
2019-04-30T19:47:13.111Z,39.07
2019-04-30T19:49:40.772Z,39.50
2019-04-30T19:52:09.505Z,32.80
2019-04-30T19:54:34.947Z,40.10
2019-04-30T19:57:01.043Z,37.80
2019-04-30T19:59:27.088Z,34.77
2019-04-30T20:01:53.196Z,34.53
2019-04-30T20:04:19.352Z,34.67
2019-04-30T20:06:45.396Z,38.27
2019-04-30T20:09:11.757Z,38.23
2019-04-30T20:11:39.877Z,38.73
2019-04-30T20:14:05.810Z,39.70
2019-04-30T20:16:31.925Z,48.30
2019-04-30T20:18:59.199Z,36.67
2019-04-30T20:21:28.876Z,34.00
2019-04-30T20:23:53.699Z,37.40
2019-04-30T20:26:19.770Z,35.23
2019-04-30T20:28:45.824Z,41.73
2019-04-30T20:31:11.875Z,37.97
2019-04-30T20:33:38.868Z,48.83
2019-04-30T20:36:05.187Z,43.73
2019-04-30T20:38:38.983Z,44.60
2019-04-30T20:41:09.126Z,48.77
2019-04-30T20:43:34.964Z,63.03
2019-04-30T20:46:01.091Z,41.30
2019-04-30T20:48:27.286Z,54.23
2019-04-30T20:50:53.353Z,35.20
2019-04-30T20:53:19.833Z,55.70
2019-04-30T20:55:46.135Z,38.63
2019-04-30T20:58:12.210Z,34.23
2019-04-30T21:00:38.361Z,35.90
2019-04-30T21:03:04.432Z,37.37
2019-04-30T21:05:30.632Z,50.30
2019-04-30T21:07:56.843Z,56.17
2019-04-30T21:10:22.993Z,46.20
2019-04-30T21:12:49.882Z,46.23
2019-04-30T21:15:16.109Z,44.07
2019-04-30T21:17:42.166Z,43.90
2019-04-30T21:20:09.675Z,38.57
2019-04-30T21:22:36.011Z,40.17
2019-04-30T21:25:06.556Z,37.80
2019-04-30T21:27:32.602Z,36.23
2019-04-30T21:29:58.997Z,4.37
2019-04-30T21:32:44.107Z,6.10
2019-04-30T21:35:24.283Z,17.30
2019-04-30T21:37:50.439Z,16.53
2019-04-30T21:40:16.536Z,25.27
2019-04-30T21:42:42.583Z,22.17
2019-04-30T21:45:08.843Z,23.93
2019-04-30T21:47:35.282Z,11.55
2019-04-30T21:50:02.612Z,9.93
2019-04-30T21:52:28.664Z,10.77
2019-04-30T21:54:54.715Z,8.73
2019-04-30T21:57:20.803Z,6.85
2019-04-30T21:59:48.747Z,4.47
2019-04-30T22:02:15.218Z,6.00
2019-04-30T22:04:41.271Z,6.87
2019-04-30T22:07:09.277Z,12.57
2019-04-30T22:09:35.289Z,17.30
2019-04-30T22:12:01.344Z,12.00
2019-04-30T22:14:27.399Z,26.33
2019-04-30T22:16:53.552Z,15.40
2019-04-30T22:19:19.995Z,7.83
2019-04-30T22:21:46.422Z,16.67
2019-04-30T22:24:12.527Z,56.33
2019-04-30T22:26:38.963Z,7.43
2019-04-30T22:29:05.388Z,5.30
2019-04-30T22:31:31.845Z,10.63
2019-04-30T22:33:58.932Z,12.87
2019-04-30T22:36:28.989Z,11.50
2019-04-30T22:38:57.179Z,9.37
2019-04-30T22:41:30.727Z,14.50
2019-04-30T22:43:57.155Z,17.10
2019-04-30T22:46:23.623Z,13.00
2019-04-30T22:48:49.678Z,7.63
2019-04-30T22:51:16.115Z,5.60
2019-04-30T22:53:42.167Z,23.37
2019-04-30T22:56:08.224Z,6.97
2019-04-30T22:58:34.667Z,3.50
2019-04-30T23:01:05.156Z,10.87
2019-04-30T23:03:33.224Z,24.72
2019-04-30T23:05:59.479Z,14.80
2019-04-30T23:08:26.066Z,19.77
2019-04-30T23:10:52.531Z,22.70
2019-04-30T23:13:18.959Z,15.17
2019-04-30T23:15:46.387Z,12.57
2019-04-30T23:18:12.823Z,11.47
2019-04-30T23:20:38.867Z,5.93
2019-04-30T23:23:05.308Z,8.53
2019-04-30T23:25:31.372Z,3.03
2019-04-30T23:27:57.419Z,12.33
2019-04-30T23:30:23.859Z,7.57
2019-04-30T23:32:49.907Z,4.27
2019-04-30T23:35:16.344Z,27.60
2019-04-30T23:37:42.771Z,7.30
2019-04-30T23:40:26.419Z,9.60
2019-04-30T23:42:52.961Z,11.85
2019-04-30T23:45:19.391Z,13.53
2019-04-30T23:47:45.828Z,17.10
2019-04-30T23:50:11.959Z,18.67
2019-04-30T23:52:38.065Z,6.20
2019-04-30T23:55:04.416Z,5.83
2019-04-30T23:57:30.859Z,5.37
2019-04-30T23:59:56.918Z,3.73
